Tiempo atmosférico en la estación meteorológica de Sardón De Duero, Valladolid (720 m.)



Fecha
DESCASC
Temp. máxima en grados centígrados (hora)
DESCASC
Temp. mínima en grados centígrados (hora)
DESCASC
Temp. media en grados centígrados
DESCASC
Racha de viento máxima en m/sg (hora)
DESCASC
Velocidad máxima media en intervalos de 10 minutos(hora)
DESCASC
Precipitaciones diarias en mm
DESCASC
Precipitaciones de 00:00 a 06:00 en mm
DESCASC
Precipitaciones de 06:00 a 12:00 en mm
DESCASC
Precipitaciones de 12:00 a 18:00 en mm
DESCASC
Precipitaciones de 18:00 a 24:00 en mm
DESCASC
03-12-2020 8.6 (15:50) -6.9 (08:10) 0.9 14.72 (23:40) 9.72 (23:59) 0 0 0 0 0
02-12-2020 9.7 (15:30) -3 (23:59) 3.3 10.28 (15:10) 5 (15:20) 0 0 0 0 0
01-12-2020 16.5 (14:40) -4.1 (08:40) 6.2 7.22 (15:10) 3.33 (15:20) 0 0 0 0 0
30-11-2020 17.6 (16:20) -1.1 (-00:0) 8.3 3.61 (14:20) 1.67 (13:20) 0 0 0 0 0
29-11-2020 17 (15:20) -0.2 (00:00) 8.4 4.17 (14:10) 2.22 (14:10) 0 0 0 0 0
28-11-2020 15.6 (14:50) -0.5 (-00:0) 7.6 5.28 (16:20) 3.61 (16:20) 0 0 0 0 0
27-11-2020 16.5 (13:50) 4.1 (00:00) 10.3 9.44 (12:20) 4.72 (12:20) 0 0 0 0 0
26-11-2020 13.6 (12:40) 5.9 (00:00) 9.8 8.61 (04:50) 3.89 (06:10) 0 0 0 0 0
25-11-2020 15.5 (14:50) -1.6 (-00:0) 6.9 9.72 (15:50) 5.56 (15:20) 0 0 0 0 0
24-11-2020 14.8 (14:40) -3.2 (-00:0) 5.8 5.28 (14:10) 3.06 (13:50) 0 0 0 0 0
23-11-2020 18.6 (15:00) -3.8 (-00:0) 7.4 3.61 (15:20) 1.39 (15:20) 0 0 0 0 0
22-11-2020 17.3 (16:20) -3.1 (-00:0) 7.1 3.06 (14:00) 1.67 (13:50) 0 0 0 0 0
21-11-2020 20.5 (16:20) -2.6 (-00:0) 9 2.78 (11:50) 1.67 (00:20) 0 0 0 0 0
20-11-2020 16.3 (16:00) 0.6 (00:00) 8.4 6.94 (13:10) 3.33 (14:20) 0 0 0 0 0
19-11-2020 20.9 (15:10) 2 (00:00) 11.4 6.67 (22:10) 3.33 (18:30) 0 0 0 0 0
18-11-2020 23 (14:50) 1.4 (00:00) 12.2 2.78 (11:10) 1.39 (11:30) 0 0 0 0 0
17-11-2020 21.5 (16:20) 1 (00:00) 11.3 3.06 (07:20) 1.39 (07:30) 0 0 0 0 0
16-11-2020 17.6 (15:50) 3.1 (00:00) 10.4 5 (11:50) 3.33 (14:00) 0.6 0.4 0 0.2 0
15-11-2020 16.9 (14:00) 9.2 (00:00) 13 11.67 (12:40) 6.94 (14:20) 0.8 0 0.2 0 0.6
14-11-2020 18.6 (13:40) 2.3 (00:00) 10.5 6.11 (22:50) 3.61 (15:00) 0.2 0 0 0 0.2
13-11-2020 19.8 (16:40) 3 (00:00) 11.4 3.89 (15:00) 2.22 (12:10) 0 0 0 0 0
12-11-2020 20 (15:40) 1.9 (00:00) 10.9 2.78 (14:10) 1.39 (18:10) 0.2 0 0 0.2 0
11-11-2020 11.8 (16:50) 3 (00:00) 7.4 5.28 (13:40) 3.61 (13:40) 0 0 0 0 0
10-11-2020 10.5 (16:00) 2.7 (00:00) 6.6 2.78 (15:00) 1.67 (16:30) 0.2 0 0 0 0.2
09-11-2020 16.3 (13:50) 6.6 (00:00) 11.4 7.22 (14:10) 3.61 (14:40) 1.2 0 1.2 0 0
08-11-2020 17.3 (15:10) 4 (00:00) 10.6 9.17 (13:10) 6.11 (13:10) 4.4 0 0 2.2 2.2
07-11-2020 16.2 (16:20) 6.1 (00:00) 11.2 8.89 (13:00) 6.11 (13:00) 0.2 0.2 0 0 0
06-11-2020 17.8 (16:00) 8.7 (00:00) 13.2 18.61 (20:50) 6.11 (20:50) 3.2 0 0.2 0 3
05-11-2020 12.4 (13:40) 7.6 (00:00) 10 13.61 (07:10) 5.83 (07:00) 0.2 0 0.2 0 0

Gráficas

Temp. máximas Temp. mínimas Temp. medias Precipitaciones Rachas de viento máximas Velocidades máximas media en intervalos de 10 minutos

Datos horarios

Fecha y hora oficial Temperatura (ºC) Velocidad del viento (km/h) Dirección del viento Racha (km/h) Dirección de racha Precipitación (mm) Presión (hPa) Tendencia (hPa) Humedad (%)
2020-12-04 23:00:00 -0.6 7 Sudoeste 14 Oeste 0 -- -- 95
2020-12-04 22:00:00 0.1 10 Sudoeste 17 Sudoeste 0 -- -- 93
2020-12-04 21:00:00 0.5 10 Sudoeste 19 Oeste 0 -- -- 89
2020-12-04 20:00:00 1.5 13 Sudoeste 22 Sudoeste 0 -- -- 84
2020-12-04 19:00:00 2.2 12 Sudoeste 32 Sudoeste 0 -- -- 82
2020-12-04 18:00:00 3.2 12 Oeste 24 Oeste 0 -- -- 78
2020-12-04 17:00:00 3.7 15 Oeste 36 Oeste 0 -- -- 74
2020-12-04 16:00:00 5.4 24 Oeste 37 Oeste 0 -- -- 69
2020-12-04 15:00:00 5 19 Oeste 33 Oeste 0 -- -- 70
2020-12-04 14:00:00 5.1 19 Oeste 47 Oeste 0 -- -- 71
2020-12-04 13:00:00 5.3 30 Oeste 50 Oeste 0 -- -- 71
2020-12-04 12:00:00 4.6 29 Oeste 62 Oeste 0 -- -- 74
2020-12-04 11:00:00 3.2 23 Oeste 40 Oeste 0 -- -- 82
2020-12-04 10:00:00 2.1 16 Oeste 32 Oeste 0 -- -- 89
2020-12-04 09:00:00 1.5 13 Oeste 28 Oeste 0 -- -- 92
2020-12-04 08:00:00 2.3 16 Oeste 32 Sudoeste 0 -- -- 91
2020-12-04 07:00:00 2.8 18 Oeste 30 Sudoeste 0 -- -- 91
2020-12-04 06:00:00 3 15 Oeste 26 Oeste 0 -- -- 92
2020-12-04 05:00:00 3.2 16 Sudoeste 28 Oeste 0 -- -- 92
2020-12-04 04:00:00 4.1 20 Sudoeste 34 Oeste 0 -- -- 87
2020-12-04 03:00:00 4.9 19 Oeste 51 Oeste 5.4 -- -- 92
2020-12-04 02:00:00 6.2 24 Oeste 64 Sudoeste 0.4 -- -- 94
2020-12-04 01:00:00 6.6 33 Sudoeste 58 Oeste 0 -- -- 91
2020-12-04 00:00:00 6.8 35 Sudoeste 53 Sudoeste 0 -- -- 86
2020-12-03 23:00:00 6.6 26 Sudoeste 46 Sudoeste 0 -- -- 83
2020-12-03 22:00:00 6.5 28 Sudoeste 44 Sudoeste 0 -- -- 76
2020-12-03 21:00:00 6.8 30 Sudoeste 44 Sudoeste 0 -- -- 70
2020-12-03 20:00:00 6.7 17 Sudoeste 45 Sudoeste 0 -- -- 74
2020-12-03 19:00:00 6.5 19 Oeste 36 Sudoeste 0 -- -- 70
2020-12-03 18:00:00 6.4 20 Sudoeste 36 Sudoeste 0 -- -- 67
2020-12-03 17:00:00 7.7 16 Oeste 28 Oeste 0 -- -- 61
2020-12-03 16:00:00 8.5 20 Sudoeste 41 Sudoeste 0 -- -- 54
2020-12-03 15:00:00 8 16 Sudoeste 24 Sudoeste 0 -- -- 60
2020-12-03 14:00:00 7.5 16 Sudoeste 25 Sudoeste 0 -- -- 61
2020-12-03 13:00:00 7 6 Noroeste 14 Noroeste 0 -- -- 67
2020-12-03 12:00:00 6.2 3 Noroeste 7 Noroeste 0 -- -- 72
2020-12-03 11:00:00 2.9 0 Calma 5 Nordeste 0 -- -- 85
2020-12-03 10:00:00 -2.7 3 Este 6 Este 0 -- -- 98
2020-12-03 09:00:00 -6.6 0 Calma 2 Nordeste 0 -- -- 98
2020-12-03 08:00:00 -6.8 0 Calma 4 Este 0 -- -- 99
2020-12-03 07:00:00 -6.1 0 Calma 3 Oeste 0 -- -- 99
2020-12-03 06:00:00 -5.1 2 Sur 4 Norte 0 -- -- 99
2020-12-03 05:00:00 -5.2 0 Calma 3 Sudoeste 0 -- -- 99
2020-12-03 04:00:00 -4.8 0 Calma 3 Sudoeste 0 -- -- 99
2020-12-03 03:00:00 -4.2 3 Sudoeste 4 Oeste 0 -- -- 99
2020-12-03 02:00:00 -3.9 0 Calma 4 Este 0 -- -- 99
2020-12-03 01:00:00 -3.6 0 Calma 5 Sudoeste 0 -- -- 98
2020-12-03 00:00:00 -3 0 Calma 7 Sudoeste 0 -- -- 97
2020-12-02 23:00:00 -2.8 3 Este 5 Sur 0 -- -- 94
2020-12-02 22:00:00 -1.2 3 Nordeste 8 Sudeste 0 -- -- 92
2020-12-02 21:00:00 1.3 5 Sudeste 9 Sudeste 0 -- -- 85
2020-12-02 20:00:00 2.3 5 Sur 15 Este 0 -- -- 77
2020-12-02 19:00:00 4.3 8 Nordeste 31 Nordeste 0 -- -- 71
2020-12-02 18:00:00 5.1 8 Nordeste 28 Nordeste 0 -- -- 68
2020-12-02 17:00:00 8.6 11 Nordeste 32 Este 0 -- -- 56
2020-12-02 16:00:00 9.5 15 Nordeste 37 Este 0 -- -- 51
2020-12-02 15:00:00 9.1 16 Nordeste 37 Este 0 -- -- 53
2020-12-02 14:00:00 8.2 11 Nordeste 29 Nordeste 0 -- -- 57
2020-12-02 13:00:00 8.9 11 Nordeste 30 Nordeste 0 -- -- 53
2020-12-02 12:00:00 8.6 13 Nordeste 31 Nordeste 0 -- -- 54
2020-12-02 11:00:00 6.7 12 Nordeste 29 Este 0 -- -- 61
2020-12-02 10:00:00 5.7 8 Nordeste 28 Norte 0 -- -- 66
2020-12-02 09:00:00 5.6 8 Nordeste 26 Nordeste 0 -- -- 67
2020-12-02 08:00:00 4.4 5 Nordeste 10 Nordeste 0 -- -- 93
2020-12-02 07:00:00 3.5 0 Calma 4 Norte 0 -- -- 94
2020-12-02 06:00:00 2.7 2 Este 6 Este 0 -- -- 95
2020-12-02 05:00:00 3.7 0 Calma 4 Oeste 0 -- -- 90
2020-12-02 04:00:00 4.3 0 Calma 8 Sudoeste 0 -- -- 88
2020-12-02 03:00:00 4.5 8 Sudoeste 12 Sudoeste 0 -- -- 82
2020-12-02 02:00:00 3.4 2 Oeste 4 Noroeste 0 -- -- 86
2020-12-02 01:00:00 3.1 0 Calma 2 Este 0 -- -- 91
2020-12-02 00:00:00 2.3 0 Calma 2 Oeste 0 -- -- 94
2020-12-01 23:00:00 0.5 0 Calma 3 Sudoeste 0 -- -- 95
2020-12-01 22:00:00 1.1 0 Calma 2 Sudoeste 0 -- -- 93
2020-12-01 21:00:00 2.4 0 Calma 5 Este 0 -- -- 93
2020-12-01 20:00:00 3.1 0 Calma 5 Este 0 -- -- 88
2020-12-01 19:00:00 3.7 0 Calma 4 Sudeste 0 -- -- 87
2020-12-01 18:00:00 7 0 Calma 5 Este 0 -- -- 79
2020-12-01 17:00:00 11.6 4 Nordeste 15 Nordeste 0 -- -- 61
2020-12-01 16:00:00 14.7 5 Nordeste 26 Nordeste 0 -- -- 44
2020-12-01 15:00:00 15.1 9 Nordeste 21 Norte 0 -- -- 42
2020-12-01 14:00:00 15.5 0 Calma 7 Sur 0 -- -- 42
2020-12-01 13:00:00 10.9 4 Norte 10 Este 0 -- -- 57
2020-12-01 12:00:00 8 0 Calma 10 Nordeste 0 -- -- 74
2020-12-01 11:00:00 4 4 Este 7 Este 0 -- -- 93
2020-12-01 10:00:00 -1.9 0 Calma 5 Nordeste 0 -- -- 100
2020-12-01 09:00:00 -3.8 0 Calma 2 Nordeste 0 -- -- 100
2020-12-01 08:00:00 -3.4 0 Calma 3 Nordeste 0 -- -- 100
2020-12-01 07:00:00 -3.1 0 Calma 3 Este 0 -- -- 100
2020-12-01 06:00:00 -3.3 0 Calma 2 Este 0 -- -- 100
2020-12-01 05:00:00 -2.6 0 Calma 4 Sur 0 -- -- 100
2020-12-01 04:00:00 -1.9 0 Calma 8 Este 0 -- -- 100
2020-12-01 03:00:00 -1.2 2 Nordeste 8 Este 0 -- -- 100
2020-12-01 02:00:00 -0.9 3 Este 8 Este 0 -- -- 100
2020-12-01 01:00:00 -1.4 2 Este 4 Este 0 -- -- 100
2020-12-01 00:00:00 0.1 0 Calma 5 Este 0 -- -- 100
2020-11-30 23:00:00 1.5 5 Este 9 Este 0 -- -- 100
2020-11-30 22:00:00 1.5 0 Calma 5 Sur 0 -- -- 99
2020-11-30 21:00:00 2.4 0 Calma 5 Este 0 -- -- 98
2020-11-30 20:00:00 3.5 3 Este 5 Este 0 -- -- 96
2020-11-30 19:00:00 5.2 3 Este 6 Este 0 -- -- 91
2020-11-30 18:00:00 9.4 4 Este 10 Nordeste 0 -- -- 80
2020-11-30 17:00:00 16.5 5 Nordeste 10 Nordeste 0 -- -- 56
2020-11-30 16:00:00 15.3 0 Calma 5 Este 0 -- -- 67
2020-11-30 15:00:00 15.3 2 Este 13 Nordeste 0 -- -- 64
2020-11-30 14:00:00 14.2 5 Este 12 Este 0 -- -- 65
2020-11-30 13:00:00 12.7 5 Este 9 Este 0 -- -- 69
2020-11-30 12:00:00 11.1 4 Nordeste 10 Nordeste 0 -- -- 72
2020-11-30 11:00:00 8.1 3 Este 10 Este 0 -- -- 95
2020-11-30 10:00:00 2.9 0 Calma 6 Sudeste 0 -- -- 100
2020-11-30 09:00:00 -0.2 4 Este 8 Nordeste 0 -- -- 100
2020-11-30 08:00:00 -0.8 3 Nordeste 6 Este 0 -- -- 100
2020-11-30 07:00:00 -0.8 0 Calma 3 Este 0 -- -- 100
2020-11-30 06:00:00 -0.2 0 Calma 6 Nordeste 0 -- -- 100
2020-11-30 05:00:00 0.6 0 Calma 8 Nordeste 0 -- -- 100
2020-11-30 04:00:00 0.2 3 Este 6 Nordeste 0 -- -- 100
2020-11-30 03:00:00 -0.1 2 Este 5 Este 0 -- -- 100
2020-11-30 02:00:00 -0.3 2 Nordeste 5 Nordeste 0 -- -- 100
2020-11-30 01:00:00 -0.1 3 Este 6 Nordeste 0 -- -- 100
2020-11-30 00:00:00 0.8 0 Calma 7 Este 0 -- -- 100
2020-11-29 23:00:00 0.9 4 Este 7 Sudeste 0 -- -- 100
2020-11-29 22:00:00 0.8 4 Este 6 Este 0 -- -- 99
2020-11-29 21:00:00 1.6 0 Calma 4 Este 0 -- -- 97
2020-11-29 20:00:00 3 0 Calma 5 Sur 0 -- -- 95
2020-11-29 19:00:00 4.6 2 Este 6 Sudeste 0 -- -- 93
2020-11-29 18:00:00 7.4 3 Este 5 Este 0 -- -- 84
2020-11-29 17:00:00 14.5 3 Este 9 Nordeste 0 -- -- 63
2020-11-29 16:00:00 15.6 4 Este 12 Este 0 -- -- 55
2020-11-29 15:00:00 16.2 4 Nordeste 15 Este 0 -- -- 50
2020-11-29 14:00:00 15 7 Nordeste 15 Nordeste 0 -- -- 54
2020-11-29 13:00:00 15.5 2 Norte 9 Norte 0 -- -- 57
2020-11-29 12:00:00 12.8 2 Norte 12 Nordeste 0 -- -- 69
2020-11-29 11:00:00 9.2 3 Este 12 Este 0 -- -- 96
2020-11-29 10:00:00 4 4 Nordeste 10 Nordeste 0 -- -- 100
2020-11-29 09:00:00 0.8 0 Calma 8 Nordeste 0 -- -- 100
2020-11-29 08:00:00 0.6 5 Este 9 Nordeste 0 -- -- 100
2020-11-29 07:00:00 0.1 4 Este 8 Este 0 -- -- 100
2020-11-29 06:00:00 -0.2 4 Este 5 Nordeste 0 -- -- 100
2020-11-29 05:00:00 1.4 0 Calma 6 Este 0 -- -- 100
2020-11-29 04:00:00 2 0 Calma 5 Nordeste 0 -- -- 100
2020-11-29 03:00:00 2 0 Calma 5 Este 0 -- -- 100
2020-11-29 02:00:00 2.3 0 Calma 5 Nordeste 0 -- -- 100
2020-11-29 01:00:00 2.5 3 Este 6 Este 0 -- -- 100
2020-11-29 00:00:00 4.2 0 Calma 8 Nordeste 0 -- -- 99
2020-11-28 23:00:00 5.8 3 Este 6 Este 0 -- -- 97
2020-11-28 22:00:00 6.2 0 Calma 6 Este 0 -- -- 96
2020-11-28 21:00:00 6.5 2 Sudoeste 6 Sudoeste 0 -- -- 95
2020-11-28 20:00:00 6.4 4 Sudoeste 12 Sudoeste 0 -- -- 95
2020-11-28 19:00:00 6.5 8 Sudoeste 14 Sudoeste 0 -- -- 94
2020-11-28 18:00:00 7.2 5 Sudoeste 9 Oeste 0 -- -- 90
2020-11-28 17:00:00 10.8 8 Oeste 19 Oeste 0 -- -- 76
2020-11-28 16:00:00 13.8 9 Oeste 17 Oeste -- -- -- 65
2020-11-28 15:00:00 15.5 8 Sudoeste 15 Sudoeste 0 -- -- 55
2020-11-28 14:00:00 14.3 9 Sudoeste 17 Sudoeste 0 -- -- 58
2020-11-28 13:00:00 13.1 9 Sudoeste 15 Oeste 0 -- -- 64
2020-11-28 12:00:00 13.8 3 Oeste 9 Oeste 0 -- -- 68
2020-11-28 11:00:00 10.1 3 Oeste 6 Sudoeste 0 -- -- 87
2020-11-28 10:00:00 3.6 0 Calma 4 Oeste 0 -- -- 100
2020-11-28 09:00:00 -0.1 0 Calma 3 Este 0 -- -- 100
2020-11-28 08:00:00 0.3 0 Calma 4 Sudoeste 0 -- -- 100
2020-11-28 07:00:00 1.1 3 Sudoeste 5 Nordeste 0 -- -- 100
2020-11-28 06:00:00 0.9 3 Nordeste 6 Este 0 -- -- 100
2020-11-28 05:00:00 2.7 2 Nordeste 8 Este 0 -- -- 100
2020-11-28 04:00:00 1.5 5 Este 8 Este 0 -- -- 100
2020-11-28 03:00:00 2.6 3 Nordeste 9 Nordeste 0 -- -- 100
2020-11-28 02:00:00 3 3 Nordeste 12 Nordeste 0 -- -- 99
2020-11-28 01:00:00 3.9 3 Sudeste 8 Nordeste 0 -- -- 97
2020-11-28 00:00:00 5.7 5 Nordeste 14 Nordeste 0 -- -- 95
2020-11-27 23:00:00 6.6 6 Nordeste 15 Este 0 -- -- 94
2020-11-27 22:00:00 6.4 4 Nordeste 11 Este 0 -- -- 93
2020-11-27 21:00:00 7.9 4 Nordeste 13 Este 0 -- -- 85
2020-11-27 20:00:00 9.8 5 Este 29 Este 0 -- -- 78
2020-11-27 19:00:00 10 7 Nordeste 17 Nordeste 0 -- -- 77
2020-11-27 18:00:00 10.8 5 Nordeste 24 Nordeste 0 -- -- 74
2020-11-27 17:00:00 12.9 12 Este 28 Sudeste 0 -- -- 66
2020-11-27 16:00:00 13.4 9 Este 28 Este 0 -- -- 66
2020-11-27 15:00:00 13 11 Este 27 Este 0 -- -- 67
2020-11-27 14:00:00 16.2 15 Este 30 Este 0 -- -- 56
2020-11-27 13:00:00 14.3 12 Este 34 Este 0 -- -- 66
2020-11-27 12:00:00 12.2 12 Este 34 Este 0 -- -- 77
2020-11-27 11:00:00 11.1 12 Este 31 Este 0 -- -- 83
2020-11-27 10:00:00 9.5 13 Este 28 Este 0 -- -- 91
2020-11-27 09:00:00 6.7 4 Nordeste 18 Nordeste 0 -- -- 99
2020-11-27 08:00:00 6 5 Nordeste 12 Nordeste 0 -- -- 100
2020-11-27 07:00:00 6.2 5 Nordeste 15 Este 0 -- -- 98
2020-11-27 06:00:00 5.5 5 Este 13 Nordeste 0 -- -- 99
2020-11-27 05:00:00 6.5 4 Nordeste 19 Nordeste 0 -- -- 96
2020-11-27 04:00:00 7.8 9 Este 20 Este 0 -- -- 93
2020-11-27 03:00:00 7.1 5 Nordeste 14 Este 0 -- -- 96
2020-11-27 02:00:00 5.9 6 Nordeste 10 Nordeste 0 -- -- 99
2020-11-27 01:00:00 5.5 0 Calma 9 Sudoeste 0 -- -- 94
2020-11-27 00:00:00 8.2 5 Oeste 18 Este 0 -- -- 88
2020-11-26 23:00:00 9.1 10 Este 25 Este 0 -- -- 86
2020-11-26 22:00:00 9.4 11 Este 27 Este 0 -- -- 87
2020-11-26 21:00:00 10 11 Este 28 Este 0 -- -- 83
2020-11-26 20:00:00 10.4 13 Este 30 Este 0 -- -- 80
2020-11-26 19:00:00 10.5 12 Este 29 Este 0 -- -- 79
2020-11-26 18:00:00 11 12 Este 26 Nordeste 0 -- -- 76
2020-11-26 17:00:00 11.8 6 Nordeste 18 Este 0 -- -- 75
2020-11-26 16:00:00 11.9 8 Este 20 Este 0 -- -- 74
2020-11-26 15:00:00 11.2 10 Este 23 Este 0 -- -- 78
2020-11-26 14:00:00 11.9 10 Este 26 Este 0 -- -- 71
2020-11-26 13:00:00 12.6 8 Este 22 Este 0 -- -- 69
2020-11-26 12:00:00 10.8 9 Este 22 Este 0 -- -- 73
2020-11-26 11:00:00 9.6 9 Nordeste 22 Este 0 -- -- 76
2020-11-26 10:00:00 8.3 7 Nordeste 19 Nordeste 0 -- -- 81
2020-11-26 09:00:00 7.4 6 Nordeste 18 Este 0 -- -- 84
2020-11-26 08:00:00 7.1 4 Nordeste 20 Nordeste 0 -- -- 85
2020-11-26 07:00:00 8.2 7 Este 27 Este 0 -- -- 82
2020-11-26 06:00:00 9.2 13 Este 25 Sudeste 0 -- -- 78
2020-11-26 05:00:00 9.5 12 Este 31 Este 0 -- -- 78
2020-11-26 04:00:00 9.5 11 Sudeste 26 Sudeste 0 -- -- 80
2020-11-26 03:00:00 7.1 0 Calma 9 Nordeste 0 -- -- 90
2020-11-26 02:00:00 6.4 3 Nordeste 8 Norte 0 -- -- 90
2020-11-26 01:00:00 6.3 4 Nordeste 13 Este 0 -- -- 87
2020-11-26 00:00:00 6.7 4 Nordeste 12 Sudeste 0 -- -- 84
2020-11-25 23:00:00 8.7 8 Este 16 Este 0 -- -- 78
2020-11-25 22:00:00 10.2 8 Sudeste 22 Sudeste 0 -- -- 71
2020-11-25 21:00:00 9.7 8 Sudeste 24 Sudeste 0 -- -- 74
2020-11-25 20:00:00 9 6 Este 15 Sudeste 0 -- -- 75
2020-11-25 19:00:00 7.2 0 Calma 9 Sudoeste 0 -- -- 80
2020-11-25 18:00:00 10.5 7 Sudoeste 17 Sudoeste 0 -- -- 67
2020-11-25 17:00:00 11.7 8 Sudoeste 25 Sudoeste 0 -- -- 62
2020-11-25 16:00:00 13.1 15 Sudoeste 35 Sur 0 -- -- 57
2020-11-25 15:00:00 15.2 14 Sudeste 26 Sudeste 0 -- -- 48
2020-11-25 14:00:00 14.3 12 Sur 29 Sur 0 -- -- 53
2020-11-25 13:00:00 13.6 10 Sudeste 23 Sur 0 -- -- 54
2020-11-25 12:00:00 10.2 8 Nordeste 18 Nordeste 0 -- -- 73
2020-11-25 11:00:00 8 6 Este 21 Este 0 -- -- 92
2020-11-25 10:00:00 2.5 6 Este 14 Nordeste 0 -- -- 100
2020-11-25 09:00:00 -0.5 5 Nordeste 12 Nordeste 0 -- -- 100
2020-11-25 08:00:00 -0.8 6 Nordeste 15 Nordeste 0 -- -- 100
2020-11-25 07:00:00 -0.2 4 Nordeste 13 Nordeste 0 -- -- 100
2020-11-25 06:00:00 -0.9 3 Nordeste 8 Nordeste 0 -- -- 100
2020-11-25 05:00:00 -0.5 0 Calma 6 Nordeste 0 -- -- 100
2020-11-25 04:00:00 0.6 2 Este 6 Nordeste 0 -- -- 100
2020-11-25 03:00:00 -1 3 Nordeste 6 Este 0 -- -- 100
2020-11-25 02:00:00 -1.6 3 Este 4 Nordeste 0 -- -- 100
2020-11-25 01:00:00 -0.1 0 Calma 4 Este 0 -- -- 100
2020-11-25 00:00:00 -0.2 0 Calma 4 Este 0 -- -- 100
2020-11-24 23:00:00 1.3 0 Calma 6 Este 0 -- -- 100
2020-11-24 22:00:00 0.5 3 Nordeste 6 Este 0 -- -- 99
2020-11-24 21:00:00 1.4 0 Calma 4 Sudeste 0 -- -- 98
2020-11-24 20:00:00 3.2 0 Calma 6 Sudeste 0 -- -- 97
2020-11-24 19:00:00 4.5 2 Sudeste 4 Este 0 -- -- 94
2020-11-24 18:00:00 7 0 Calma 4 Sur 0 -- -- 87
2020-11-24 17:00:00 11.7 3 Sudoeste 10 Oeste 0 -- -- 68
2020-11-24 16:00:00 12 7 Oeste 14 Oeste 0 -- -- 65
2020-11-24 15:00:00 13.7 10 Oeste 19 Oeste 0 -- -- 58
2020-11-24 14:00:00 13.3 10 Oeste 17 Oeste 0 -- -- 56
2020-11-24 13:00:00 13.2 2 Oeste 5 Oeste 0 -- -- 59
2020-11-24 12:00:00 10.8 2 Norte 5 Este 0 -- -- 62
2020-11-24 11:00:00 7.5 2 Este 6 Este 0 -- -- 77
2020-11-24 10:00:00 0.9 3 Este 7 Este 0 -- -- 100
2020-11-24 09:00:00 -2.1 2 Nordeste 4 Nordeste 0 -- -- 100
2020-11-24 08:00:00 -2.9 2 Este 4 Este 0 -- -- 100
2020-11-24 07:00:00 -2.9 0 Calma 4 Este 0 -- -- 100
2020-11-24 06:00:00 -3.1 0 Calma 4 Este 0 -- -- 100
2020-11-24 05:00:00 -2.9 2 Este 5 Este 0 -- -- 100
2020-11-24 04:00:00 -2.5 0 Calma 4 Este 0 -- -- 100
2020-11-24 03:00:00 -2.6 0 Calma 4 Nordeste 0 -- -- 100
2020-11-24 02:00:00 -2.6 2 Este 5 Este 0 -- -- 99
2020-11-24 01:00:00 -2.5 3 Este 4 Este 0 -- -- 98
2020-11-24 00:00:00 -1.9 0 Calma 3 Este 0 -- -- 96
2020-11-23 23:00:00 -1.2 3 Nordeste 6 Este 0 -- -- 96
2020-11-23 22:00:00 -0.6 0 Calma 4 Este 0 -- -- 94
2020-11-23 21:00:00 0.5 0 Calma 3 Sudeste 0 -- -- 90
2020-11-23 20:00:00 1.9 2 Este 5 Sudeste 0 -- -- 86
2020-11-23 19:00:00 3.4 0 Calma 4 Este 0 -- -- 81
2020-11-23 18:00:00 7.8 0 Calma 5 Nordeste 0 -- -- 69
2020-11-23 17:00:00 16.6 0 Calma 10 Norte 0 -- -- 38
2020-11-23 16:00:00 17.3 3 Norte 13 Norte 0 -- -- 32
2020-11-23 15:00:00 18.6 0 Calma 8 Este 0 -- -- 34
2020-11-23 14:00:00 16.6 2 Norte 10 Sur 0 -- -- 42
2020-11-23 13:00:00 14.2 3 Sur 4 Sur 0 -- -- 50
2020-11-23 12:00:00 12 2 Nordeste 10 Este 0 -- -- 60
2020-11-23 11:00:00 8.3 3 Este 9 Este 0 -- -- 78
2020-11-23 10:00:00 0.4 2 Este 6 Nordeste 0 -- -- 100
2020-11-23 09:00:00 -3.2 2 Nordeste 5 Este 0 -- -- 100
2020-11-23 08:00:00 -3.5 0 Calma 4 Nordeste 0 -- -- 100
2020-11-23 07:00:00 -3.6 0 Calma 2 Nordeste 0 -- -- 100
2020-11-23 06:00:00 -3 0 Calma 4 Este 0 -- -- 100
2020-11-23 05:00:00 -2.8 0 Calma 2 Este 0 -- -- 100
2020-11-23 04:00:00 -2.3 2 Este 6 Este 0 -- -- 100
2020-11-23 03:00:00 -2.1 3 Este 6 Este 0 -- -- 100
2020-11-23 02:00:00 -2.1 0 Calma 3 Este 0 -- -- 100
2020-11-23 01:00:00 -2.1 2 Este 4 Este 0 -- -- 100
2020-11-23 00:00:00 -2 3 Nordeste 5 Este 0 -- -- 99
2020-11-22 23:00:00 -1.5 0 Calma 3 Este 0 -- -- 98
2020-11-22 22:00:00 -0.9 2 Este 5 Este 0 -- -- 97
2020-11-22 21:00:00 0.1 2 Este 4 Sudeste 0 -- -- 95
2020-11-22 20:00:00 1.4 0 Calma 3 Sudeste 0 -- -- 93
2020-11-22 19:00:00 3.2 0 Calma 2 Este 0 -- -- 88
2020-11-22 18:00:00 8.4 0 Calma 6 Oeste 0 -- -- 72
2020-11-22 17:00:00 15.8 4 Sudoeste 8 Oeste 0 -- -- 42
2020-11-22 16:00:00 16.6 5 Oeste 10 Sudoeste 0 -- -- 37
2020-11-22 15:00:00 16.1 6 Oeste 11 Oeste 0 -- -- 37
2020-11-22 14:00:00 15 6 Oeste 11 Oeste 0 -- -- 40
2020-11-22 13:00:00 14.4 4 Sudoeste 9 Oeste 0 -- -- 48
2020-11-22 12:00:00 12.4 0 Calma 6 Este 0 -- -- 55
2020-11-22 11:00:00 8.3 3 Este 8 Este 0 -- -- 68
2020-11-22 10:00:00 0.6 2 Este 5 Este 0 -- -- 100
2020-11-22 09:00:00 -2.6 0 Calma 4 Este 0 -- -- 100
2020-11-22 08:00:00 -2.9 0 Calma 6 Nordeste 0 -- -- 100
2020-11-22 07:00:00 -2.7 3 Este 7 Este 0 -- -- 100
2020-11-22 06:00:00 -2.8 2 Este 3 Nordeste 0 -- -- 100
2020-11-22 05:00:00 -2.1 2 Este 7 Este 0 -- -- 100
2020-11-22 04:00:00 -2.1 4 Nordeste 8 Nordeste 0 -- -- 100
2020-11-22 03:00:00 -2.2 2 Este 7 Nordeste 0 -- -- 100
2020-11-22 02:00:00 -2 3 Este 5 Este 0 -- -- 100
2020-11-22 01:00:00 -2 4 Este 6 Nordeste 0 -- -- 99
2020-11-22 00:00:00 -1.7 0 Calma 5 Nordeste 0 -- -- 98
2020-11-21 23:00:00 -1.2 0 Calma 5 Este 0 -- -- 97
2020-11-21 22:00:00 0.3 0 Calma 4 Este 0 -- -- 97
2020-11-21 21:00:00 0.5 0 Calma 2 Sudoeste 0 -- -- 94
2020-11-21 20:00:00 1.8 0 Calma 4 Sudoeste 0 -- -- 90
2020-11-21 19:00:00 3.6 0 Calma 6 Este 0 -- -- 83
2020-11-21 18:00:00 8.4 0 Calma 4 Sudoeste 0 -- -- 70
2020-11-21 17:00:00 20.3 0 Calma 5 Este 0 -- -- 41
2020-11-21 16:00:00 20.3 0 Calma 8 Sudoeste 0 -- -- 31
2020-11-21 15:00:00 18.1 2 Sudeste 8 Nordeste 0 -- -- 34
2020-11-21 14:00:00 16.2 2 Norte 8 Norte 0 -- -- 36
2020-11-21 13:00:00 14 3 Nordeste 9 Norte 0 -- -- 40
2020-11-21 12:00:00 11.7 3 Nordeste 10 Este 0 -- -- 42
2020-11-21 11:00:00 8 0 Calma 6 Oeste 0 -- -- 65
2020-11-21 10:00:00 2.1 3 Sudoeste 5 Sur 0 -- -- 97
2020-11-21 09:00:00 -2 2 Este 4 Este 0 -- -- 100
2020-11-21 08:00:00 -2.6 4 Este 6 Este 0 -- -- 100
2020-11-21 07:00:00 -2.3 0 Calma 4 Norte 0 -- -- 100
2020-11-21 06:00:00 -2 2 Sudoeste 3 Sudoeste 0 -- -- 100
2020-11-21 05:00:00 -1.9 0 Calma 4 Sur 0 -- -- 100
2020-11-21 04:00:00 -1.5 0 Calma 4 Este 0 -- -- 100
2020-11-21 03:00:00 -0.7 2 Este 6 Este 0 -- -- 99
2020-11-21 02:00:00 0.4 4 Nordeste 8 Nordeste 0 -- -- 99
2020-11-21 01:00:00 0.8 5 Este 9 Este 0 -- -- 98
2020-11-21 00:00:00 0.9 3 Este 8 Nordeste 0 -- -- 96
2020-11-20 23:00:00 1.8 2 Este 8 Nordeste 0 -- -- 94
2020-11-20 22:00:00 2.1 4 Este 6 Este 0 -- -- 91
2020-11-20 21:00:00 5.4 3 Nordeste 16 Este 0 -- -- 76
2020-11-20 20:00:00 7 6 Nordeste 18 Este 0 -- -- 70
2020-11-20 19:00:00 7.7 7 Nordeste 20 Este 0 -- -- 71
2020-11-20 18:00:00 9.8 7 Nordeste 17 Nordeste 0 -- -- 63
2020-11-20 17:00:00 15 5 Nordeste 15 Nordeste 0 -- -- 51
2020-11-20 16:00:00 16.3 5 Nordeste 23 Nordeste 0 -- -- 44
2020-11-20 15:00:00 15.1 10 Nordeste 24 Nordeste 0 -- -- 48
2020-11-20 14:00:00 14.6 10 Nordeste 25 Nordeste 0 -- -- 50
2020-11-20 13:00:00 13.8 9 Nordeste 19 Nordeste 0 -- -- 50
2020-11-20 12:00:00 13.5 6 Este 21 Este 0 -- -- 56
2020-11-20 11:00:00 11.3 6 Este 17 Este 0 -- -- 63
2020-11-20 10:00:00 6.3 5 Este 11 Nordeste 0 -- -- 91
2020-11-20 09:00:00 1.4 0 Calma 4 Oeste 0 -- -- 100
2020-11-20 08:00:00 1.2 0 Calma 10 Nordeste 0 -- -- 98
2020-11-20 07:00:00 2.4 4 Nordeste 10 Este 0 -- -- 97
2020-11-20 06:00:00 3.7 4 Este 13 Este 0 -- -- 95
2020-11-20 05:00:00 4.4 6 Este 20 Nordeste 0 -- -- 93
2020-11-20 04:00:00 3.9 4 Nordeste 10 Nordeste 0 -- -- 96
2020-11-20 03:00:00 4.2 2 Este 9 Este 0 -- -- 98
2020-11-20 02:00:00 4.8 2 Este 13 Nordeste 0 -- -- 93
2020-11-20 01:00:00 6.9 8 Nordeste 19 Este 0 -- -- 88
2020-11-20 00:00:00 6.4 4 Este 17 Nordeste 0 -- -- 93
2020-11-19 23:00:00 7.3 5 Este 24 Nordeste 0 -- -- 90
2020-11-19 22:00:00 7.8 5 Nordeste 16 Norte 0 -- -- 92
2020-11-19 21:00:00 9.5 7 Nordeste 16 Nordeste 0 -- -- 90
2020-11-19 20:00:00 10.5 8 Este 23 Este 0 -- -- 86
2020-11-19 19:00:00 12 10 Nordeste 22 Nordeste 0 -- -- 79
2020-11-19 18:00:00 14.6 10 Nordeste 20 Nordeste 0 -- -- 74
2020-11-19 17:00:00 18.5 9 Nordeste 20 Norte 0 -- -- 60
2020-11-19 16:00:00 20.3 6 Norte 17 Norte 0 -- -- 56
2020-11-19 15:00:00 20.5 5 Nordeste 17 Norte 0 -- -- 56
2020-11-19 14:00:00 20.8 6 Nordeste 21 Nordeste 0 -- -- 57
2020-11-19 13:00:00 20.4 5 Este 17 Nordeste 0 -- -- 58
2020-11-19 12:00:00 18.6 6 Este 13 Nordeste 0 -- -- 69
2020-11-19 11:00:00 15.2 0 Calma 3 Norte 0 -- -- 90
2020-11-19 10:00:00 7 0 Calma 5 Sur 0 -- -- 100
2020-11-19 09:00:00 2.6 0 Calma 5 Sur 0 -- -- 100
2020-11-19 08:00:00 2.1 0 Calma 6 Este 0 -- -- 100
2020-11-19 07:00:00 2.4 3 Este 6 Sudeste 0 -- -- 100
2020-11-19 06:00:00 2.9 0 Calma 5 Este 0 -- -- 100
2020-11-19 05:00:00 3.1 3 Este 7 Nordeste 0 -- -- 100
2020-11-19 04:00:00 2.8 3 Este 5 Este 0 -- -- 100
2020-11-19 03:00:00 3.6 0 Calma 6 Sudeste 0 -- -- 100
2020-11-19 02:00:00 4.2 0 Calma 8 Norte 0 -- -- 100
2020-11-19 01:00:00 4.4 2 Este 5 Este 0 -- -- 100
2020-11-19 00:00:00 4.9 2 Este 4 Este 0 -- -- 100
2020-11-18 23:00:00 6.3 3 Nordeste 5 Nordeste 0 -- -- 100
2020-11-18 22:00:00 5.5 3 Este 5 Este 0 -- -- 99
2020-11-18 21:00:00 6.1 0 Calma 2 Sur 0 -- -- 98
2020-11-18 20:00:00 7.5 0 Calma 5 Sudeste 0 -- -- 97
2020-11-18 19:00:00 8.7 0 Calma 5 Sudeste 0 -- -- 92
2020-11-18 18:00:00 12.8 0 Calma 5 Sur 0 -- -- 81
2020-11-18 17:00:00 20.3 4 Sudoeste 9 Oeste 0 -- -- 52
2020-11-18 16:00:00 21.7 4 Noroeste 9 Oeste 0 -- -- 50
2020-11-18 15:00:00 22.1 2 Norte 6 Este 0 -- -- 48
2020-11-18 14:00:00 21.9 0 Calma 7 Nordeste 0 -- -- 50
2020-11-18 13:00:00 20 3 Este 10 Este 0 -- -- 59
2020-11-18 12:00:00 15 4 Nordeste 10 Este 0 -- -- 72
2020-11-18 11:00:00 12.1 4 Este 8 Este 0 -- -- 94
2020-11-18 10:00:00 6.1 3 Este 9 Este 0 -- -- 100
2020-11-18 09:00:00 2.6 4 Este 7 Este 0 -- -- 100
2020-11-18 08:00:00 1.7 3 Este 6 Nordeste 0 -- -- 100
2020-11-18 07:00:00 1.4 2 Este 5 Nordeste 0 -- -- 100
2020-11-18 06:00:00 1.7 2 Este 5 Nordeste 0 -- -- 100
2020-11-18 05:00:00 1.5 2 Nordeste 7 Nordeste 0 -- -- 100
2020-11-18 04:00:00 1.5 2 Este 5 Nordeste 0 -- -- 100
2020-11-18 03:00:00 1.7 0 Calma 4 Este 0 -- -- 100
2020-11-18 02:00:00 2.2 2 Este 5 Nordeste 0 -- -- 100
2020-11-18 01:00:00 2.4 3 Nordeste 5 Nordeste 0 -- -- 100
2020-11-18 00:00:00 3.5 0 Calma 4 Este 0 -- -- 100
2020-11-17 23:00:00 4.1 2 Este 4 Este 0 -- -- 100
2020-11-17 22:00:00 4.7 2 Este 5 Este 0 -- -- 100
2020-11-17 21:00:00 5.1 2 Este 4 Este 0 -- -- 99
2020-11-17 20:00:00 6.6 3 Este 6 Nordeste 0 -- -- 98
2020-11-17 19:00:00 8.2 0 Calma 5 Sudeste 0 -- -- 94
2020-11-17 18:00:00 13 4 Sudeste 6 Sudeste 0 -- -- 80
2020-11-17 17:00:00 20.7 2 Oeste 7 Oeste 0 -- -- 59
2020-11-17 16:00:00 19.9 3 Noroeste 6 Oeste 0 -- -- 53
2020-11-17 15:00:00 20.1 0 Calma 7 Nordeste 0 -- -- 57
2020-11-17 14:00:00 17 3 Nordeste 9 Norte 0 -- -- 70
2020-11-17 13:00:00 12.8 4 Nordeste 10 Nordeste 0 -- -- 84
2020-11-17 12:00:00 8.3 3 Nordeste 10 Este 0 -- -- 96
2020-11-17 11:00:00 5.4 5 Este 9 Nordeste 0 -- -- 100
2020-11-17 10:00:00 4.1 4 Este 9 Este 0 -- -- 100
2020-11-17 09:00:00 3.1 2 Este 7 Este 0 -- -- 100
2020-11-17 08:00:00 3 0 Calma 11 Nordeste 0 -- -- 100
2020-11-17 07:00:00 2.7 3 Este 8 Nordeste 0 -- -- 100
2020-11-17 06:00:00 1.3 0 Calma 5 Nordeste 0 -- -- 100
2020-11-17 05:00:00 1.4 0 Calma 4 Este 0 -- -- 100
2020-11-17 04:00:00 1.1 0 Calma 4 Nordeste 0 -- -- 100
2020-11-17 03:00:00 1.9 0 Calma 4 Este 0 -- -- 100
2020-11-17 02:00:00 2.5 2 Nordeste 5 Este 0 -- -- 100
2020-11-17 01:00:00 3.1 0 Calma 6 Este 0 -- -- 100
2020-11-17 00:00:00 3.1 3 Este 5 Este 0 -- -- 100
2020-11-16 23:00:00 4.1 0 Calma 3 Este 0 -- -- 100
2020-11-16 22:00:00 4.9 0 Calma 6 Este 0 -- -- 100
2020-11-16 21:00:00 5.7 0 Calma 4 Este 0 -- -- 99
2020-11-16 20:00:00 6.4 0 Calma 2 Sur 0 -- -- 97
2020-11-16 19:00:00 8.3 0 Calma 4 Sudeste 0 -- -- 93
2020-11-16 18:00:00 12.9 3 Sur 9 Oeste 0 -- -- 79
2020-11-16 17:00:00 16.9 5 Oeste 12 Oeste 0 -- -- 59
2020-11-16 16:00:00 17.2 6 Oeste 14 Oeste 0 -- -- 59
2020-11-16 15:00:00 16.1 7 Oeste 17 Sudoeste 0 -- -- 64
2020-11-16 14:00:00 15.2 12 Oeste 17 Oeste 0.2 -- -- 68
2020-11-16 13:00:00 14.6 9 Oeste 17 Oeste 0 -- -- 71
2020-11-16 12:00:00 14.3 9 Oeste 18 Sudoeste 0 -- -- 80
2020-11-16 11:00:00 13.2 3 Oeste 7 Sudoeste 0 -- -- 93
2020-11-16 10:00:00 12.1 4 Oeste 9 Sudoeste 0 -- -- 100
2020-11-16 09:00:00 11.3 4 Sur 5 Sur 0 -- -- 100
2020-11-16 08:00:00 11.4 3 Sudoeste 8 Sudoeste 0 -- -- 100
2020-11-16 07:00:00 11.6 5 Sudoeste 12 Sudoeste 0 -- -- 100
2020-11-16 06:00:00 12.2 9 Oeste 13 Sudoeste 0 -- -- 100
2020-11-16 05:00:00 12.7 5 Oeste 9 Oeste 0 -- -- 100
2020-11-16 04:00:00 12.7 2 Oeste 18 Oeste 0 -- -- 100
2020-11-16 03:00:00 13.1 9 Oeste 18 Oeste 0 -- -- 100
2020-11-16 02:00:00 13 9 Sudoeste 13 Sudoeste 0 -- -- 100
2020-11-16 01:00:00 13 7 Sudoeste 13 Sudoeste 0.4 -- -- 100
2020-11-16 00:00:00 13.3 9 Sudoeste 25 Sudoeste 0.6 -- -- 98
2020-11-15 23:00:00 14.3 13 Sudoeste 21 Sudoeste 0 -- -- 90
2020-11-15 22:00:00 14.6 14 Sudoeste 20 Sudoeste 0 -- -- 88
2020-11-15 21:00:00 14.8 13 Sudoeste 26 Sudoeste 0 -- -- 87
2020-11-15 20:00:00 15.2 16 Sudoeste 33 Sudoeste 0 -- -- 85
2020-11-15 19:00:00 15.9 21 Sudoeste 32 Sudoeste 0 -- -- 82
2020-11-15 18:00:00 16 15 Sudoeste 31 Sudoeste 0 -- -- 82
2020-11-15 17:00:00 16.4 22 Sudoeste 33 Oeste 0 -- -- 81
2020-11-15 16:00:00 16.8 16 Sudoeste 35 Sudoeste 0 -- -- 80
2020-11-15 15:00:00 16.5 20 Sudoeste 40 Sudoeste 0 -- -- 82
2020-11-15 14:00:00 16.9 23 Sudoeste 39 Sudoeste 0 -- -- 80
2020-11-15 13:00:00 16.6 23 Sudoeste 42 Sudoeste 0 -- -- 81
2020-11-15 12:00:00 16.3 22 Sudoeste 40 Oeste 0 -- -- 82
2020-11-15 11:00:00 15.4 15 Oeste 29 Oeste 0 -- -- 85
2020-11-15 10:00:00 15.3 17 Sudoeste 32 Sudoeste 0 -- -- 85
2020-11-15 09:00:00 13 6 Oeste 19 Sudoeste 0 -- -- 92
2020-11-15 08:00:00 12.3 9 Sudoeste 19 Oeste 0 -- -- 94
2020-11-15 07:00:00 12 9 Oeste 18 Oeste 0.2 -- -- 95
2020-11-15 06:00:00 12.2 10 Sudoeste 16 Sudoeste 0 -- -- 89
2020-11-15 05:00:00 11.2 5 Sudoeste 16 Sudoeste 0 -- -- 95
2020-11-15 04:00:00 9.9 2 Nordeste 5 Oeste 0 -- -- 100
2020-11-15 03:00:00 9.7 2 Noroeste 5 Noroeste 0 -- -- 99
2020-11-15 02:00:00 9.2 0 Calma 6 Noroeste 0 -- -- 98
2020-11-15 01:00:00 9.5 0 Calma 9 Oeste 0 -- -- 97
2020-11-15 00:00:00 11 5 Oeste 17 Sudoeste 0 -- -- 94
2020-11-14 23:00:00 12.4 11 Sudoeste 22 Sudoeste 0 -- -- 90
2020-11-14 22:00:00 10 0 Calma 4 Noroeste 0 -- -- 100
2020-11-14 21:00:00 10.7 2 Sur 4 Sur 0 -- -- 98
2020-11-14 20:00:00 11.4 0 Calma 9 Oeste 0 -- -- 96
2020-11-14 19:00:00 13 9 Oeste 15 Oeste 0.2 -- -- 87
2020-11-14 18:00:00 13.6 0 Calma 6 Sudoeste 0 -- -- 83
2020-11-14 17:00:00 15.8 9 Sudoeste 18 Sudoeste 0 -- -- 67
2020-11-14 16:00:00 17.1 11 Sudoeste 18 Sur 0 -- -- 63
2020-11-14 15:00:00 17.3 13 Sur 18 Sur 0 -- -- 63
2020-11-14 14:00:00 17.7 10 Sudoeste 17 Sudoeste 0 -- -- 61
2020-11-14 13:00:00 13.2 5 Nordeste 10 Nordeste 0 -- -- 82
2020-11-14 12:00:00 10 4 Nordeste 11 Nordeste 0 -- -- 99
2020-11-14 11:00:00 7.8 5 Nordeste 14 Este 0 -- -- 100
2020-11-14 10:00:00 6.2 4 Este 10 Este 0 -- -- 100
2020-11-14 09:00:00 4.2 0 Calma 6 Este 0 -- -- 100
2020-11-14 08:00:00 3.2 4 Nordeste 6 Nordeste 0 -- -- 100
2020-11-14 07:00:00 3.6 3 Este 5 Este 0 -- -- 100
2020-11-14 06:00:00 4.1 3 Este 5 Este 0 -- -- 100
2020-11-14 05:00:00 5.3 0 Calma 9 Nordeste 0 -- -- 100
2020-11-14 04:00:00 5.3 4 Este 9 Este 0 -- -- 100
2020-11-14 03:00:00 4.4 0 Calma 4 Nordeste 0 -- -- 100
2020-11-14 02:00:00 3.7 3 Este 5 Este 0 -- -- 100
2020-11-14 01:00:00 2.4 2 Nordeste 5 Este 0 -- -- 100
2020-11-14 00:00:00 3 2 Nordeste 4 Nordeste 0 -- -- 100
2020-11-13 23:00:00 4.1 0 Calma 2 Sudoeste 0 -- -- 99
2020-11-13 22:00:00 5.5 2 Este 4 Sudeste 0 -- -- 98
2020-11-13 21:00:00 6.4 0 Calma 5 Este 0 -- -- 96
2020-11-13 20:00:00 8.9 0 Calma 6 Sudoeste 0 -- -- 91
2020-11-13 19:00:00 10.8 5 Sudoeste 10 Sudoeste 0 -- -- 86
2020-11-13 18:00:00 11.8 6 Sudoeste 10 Sur 0 -- -- 83
2020-11-13 17:00:00 17.1 2 Nordeste 8 Sur 0 -- -- 63
2020-11-13 16:00:00 18.6 4 Sur 10 Sur 0 -- -- 47
2020-11-13 15:00:00 17.5 6 Sudoeste 14 Sudoeste 0 -- -- 55
2020-11-13 14:00:00 15.5 6 Oeste 13 Oeste 0 -- -- 68
2020-11-13 13:00:00 14.6 7 Oeste 13 Oeste 0 -- -- 72
2020-11-13 12:00:00 13.7 4 Oeste 8 Oeste 0 -- -- 74
2020-11-13 11:00:00 11.6 0 Calma 5 Sur 0 -- -- 84
2020-11-13 10:00:00 6.9 0 Calma 3 Sur 0 -- -- 100
2020-11-13 09:00:00 3.4 2 Sur 4 Sur 0 -- -- 100
2020-11-13 08:00:00 3.6 0 Calma 3 Nordeste 0 -- -- 100
2020-11-13 07:00:00 3.4 3 Este 5 Este 0 -- -- 100
2020-11-13 06:00:00 3.6 0 Calma 3 Nordeste 0 -- -- 100
2020-11-13 05:00:00 4.8 0 Calma 6 Este 0 -- -- 100
2020-11-13 04:00:00 4.2 4 Este 6 Sudeste 0 -- -- 100
2020-11-13 03:00:00 5.3 0 Calma 4 Este 0 -- -- 100
2020-11-13 02:00:00 5.4 0 Calma 4 Sudoeste 0 -- -- 100
2020-11-13 01:00:00 5.5 3 Este 7 Este 0 -- -- 100
2020-11-13 00:00:00 5.9 0 Calma 5 Sudoeste 0 -- -- 100
2020-11-12 23:00:00 6.1 4 Sudoeste 5 Sudoeste 0 -- -- 99
2020-11-12 22:00:00 6.5 0 Calma 3 Este 0 -- -- 97
2020-11-12 21:00:00 7.5 0 Calma 4 Este 0 -- -- 97
2020-11-12 20:00:00 7.5 0 Calma 3 Sur 0 -- -- 94
2020-11-12 19:00:00 8.2 0 Calma 9 Sudeste 0 -- -- 92
2020-11-12 18:00:00 10.6 0 Calma 6 Sudeste 0 -- -- 85
2020-11-12 17:00:00 17.6 0 Calma 4 Sudeste 0 -- -- 66
2020-11-12 16:00:00 19.2 0 Calma 4 Sudeste 0 -- -- 52
2020-11-12 15:00:00 19.2 3 Sudeste 10 Este 0 -- -- 53
2020-11-12 14:00:00 19.3 2 Este 6 Nordeste 0 -- -- 53
2020-11-12 13:00:00 16.9 2 Sudeste 6 Nordeste 0.2 -- -- 63
2020-11-12 12:00:00 14.2 2 Este 6 Este 0 -- -- 74
2020-11-12 11:00:00 11 2 Nordeste 6 Nordeste 0 -- -- 93
2020-11-12 10:00:00 6.5 3 Este 6 Este 0 -- -- 100
2020-11-12 09:00:00 2.6 2 Nordeste 4 Nordeste 0 -- -- 100
2020-11-12 08:00:00 2 2 Este 5 Nordeste 0 -- -- 100
2020-11-12 07:00:00 2.7 2 Este 5 Nordeste 0 -- -- 100
2020-11-12 06:00:00 3.6 3 Este 5 Este 0 -- -- 100
2020-11-12 05:00:00 4.3 4 Este 5 Este 0 -- -- 100
2020-11-12 04:00:00 5 3 Nordeste 6 Este 0 -- -- 100
2020-11-12 03:00:00 4.8 3 Este 5 Este 0 -- -- 100
2020-11-12 02:00:00 4.7 3 Nordeste 5 Nordeste 0 -- -- 100
2020-11-12 01:00:00 5.2 0 Calma 4 Este 0 -- -- 100
2020-11-12 00:00:00 5.9 2 Este 6 Este 0 -- -- 100
2020-11-11 23:00:00 6 3 Este 5 Este 0 -- -- 100
2020-11-11 22:00:00 6.2 4 Este 8 Nordeste 0 -- -- 100
2020-11-11 21:00:00 5.2 3 Sudeste 5 Sudeste 0 -- -- 100
2020-11-11 20:00:00 5.4 0 Calma 5 Sudeste 0 -- -- 100
2020-11-11 19:00:00 6.2 3 Sudeste 6 Sudeste 0 -- -- 98
2020-11-11 18:00:00 8.1 3 Este 4 Este 0 -- -- 93
2020-11-11 17:00:00 11.1 2 Nordeste 4 Nordeste 0 -- -- 84
2020-11-11 16:00:00 11 2 Nordeste 8 Oeste 0 -- -- 84
2020-11-11 15:00:00 10.3 4 Sudoeste 15 Oeste 0 -- -- 92
2020-11-11 14:00:00 7.7 10 Oeste 19 Sudoeste 0 -- -- 100
2020-11-11 13:00:00 7.6 3 Sudoeste 8 Sudoeste 0 -- -- 100
2020-11-11 12:00:00 6.6 0 Calma 8 Oeste 0 -- -- 100
2020-11-11 11:00:00 5.2 0 Calma 4 Norte 0 -- -- 100
2020-11-11 10:00:00 5 0 Calma 8 Norte 0 -- -- 100
2020-11-11 09:00:00 4 3 Nordeste 8 Nordeste 0 -- -- 100
2020-11-11 08:00:00 3.1 2 Sudeste 6 Sur 0 -- -- 100
2020-11-11 07:00:00 3.3 2 Sudeste 5 Sudeste 0 -- -- 100
2020-11-11 06:00:00 3.2 3 Este 9 Este 0 -- -- 100
2020-11-11 05:00:00 4.3 5 Este 8 Este 0 -- -- 100
2020-11-11 04:00:00 5 0 Calma 8 Sur 0 -- -- 100
2020-11-11 03:00:00 5.5 0 Calma 4 Este 0 -- -- 100
2020-11-11 02:00:00 5.7 2 Sudoeste 6 Oeste 0 -- -- 100
2020-11-11 01:00:00 5.5 0 Calma 4 Oeste 0 -- -- 100
2020-11-11 00:00:00 5.2 0 Calma 0 Calma 0.2 -- -- 100
2020-11-10 23:00:00 4.5 0 Calma 4 Sur 0 -- -- 100
2020-11-10 22:00:00 3.3 0 Calma 5 Este 0 -- -- 100
2020-11-10 21:00:00 3.5 2 Este 4 Este 0 -- -- 100
2020-11-10 20:00:00 4.1 0 Calma 3 Sur 0 -- -- 99
2020-11-10 19:00:00 6.2 3 Sur 4 Sur 0 -- -- 97
2020-11-10 18:00:00 9.5 0 Calma 6 Oeste 0 -- -- 93
2020-11-10 17:00:00 9.9 4 Sudoeste 10 Oeste 0 -- -- 92
2020-11-10 16:00:00 10.5 4 Oeste 8 Oeste 0 -- -- 90
2020-11-10 15:00:00 10.3 5 Noroeste 10 Noroeste 0 -- -- 92
2020-11-10 14:00:00 9.9 2 Noroeste 7 Noroeste 0 -- -- 96
2020-11-10 13:00:00 8.8 2 Noroeste 5 Oeste 0 -- -- 99
2020-11-10 12:00:00 8.3 0 Calma 4 Noroeste 0 -- -- 99
2020-11-10 11:00:00 7.5 0 Calma 6 Nordeste 0 -- -- 100
2020-11-10 10:00:00 7.2 2 Este 6 Este 0 -- -- 100
2020-11-10 09:00:00 6.5 2 Sudeste 8 Sur 0 -- -- 100
2020-11-10 08:00:00 6.1 0 Calma 2 Este 0 -- -- 100
2020-11-10 07:00:00 5.5 0 Calma 2 Norte 0 -- -- 100
2020-11-10 06:00:00 4.5 0 Calma 2 Sur 0 -- -- 100
2020-11-10 05:00:00 2.9 0 Calma 0 Calma 0 -- -- 100
2020-11-10 04:00:00 3.7 0 Calma 4 Este 0 -- -- 100
2020-11-10 03:00:00 4.6 2 Sudeste 4 Sur 0 -- -- 100
2020-11-10 02:00:00 5.9 0 Calma 4 Sudeste 0 -- -- 100
2020-11-10 01:00:00 6.7 0 Calma 3 Sur 0 -- -- 100
2020-11-10 00:00:00 7.6 0 Calma 4 Norte 0 -- -- 100
2020-11-09 23:00:00 7.5 3 Este 4 Sudeste 0 -- -- 100
2020-11-09 22:00:00 7 0 Calma 6 Sudoeste 0 -- -- 99
2020-11-09 21:00:00 8.3 3 Sudoeste 5 Sudoeste 0 -- -- 98
2020-11-09 20:00:00 9.1 0 Calma 3 Sudeste 0 -- -- 97
2020-11-09 19:00:00 8.9 0 Calma 5 Sur 0 -- -- 94
2020-11-09 18:00:00 12.4 3 Sudoeste 12 Sudoeste 0 -- -- 81
2020-11-09 17:00:00 13.9 6 Oeste 16 Oeste 0 -- -- 75
2020-11-09 16:00:00 15.4 7 Oeste 14 Sudoeste 0 -- -- 67
2020-11-09 15:00:00 15.9 10 Sudoeste 26 Sudoeste 0 -- -- 67
2020-11-09 14:00:00 16 12 Sudoeste 20 Sudoeste 0 -- -- 68
2020-11-09 13:00:00 14.2 8 Oeste 17 Sudoeste 0 -- -- 79
2020-11-09 12:00:00 11.8 7 Oeste 13 Oeste 0 -- -- 92
2020-11-09 11:00:00 12.2 6 Oeste 12 Sudoeste 0 -- -- 98
2020-11-09 10:00:00 11.1 0 Calma 5 Nordeste 0 -- -- 99
2020-11-09 09:00:00 7.8 0 Calma 5 Sudeste 1.2 -- -- 100
2020-11-09 08:00:00 6.9 0 Calma 4 Este 0 -- -- 100
2020-11-09 07:00:00 6.8 0 Calma 5 Este 0 -- -- 100
2020-11-09 06:00:00 6.6 2 Este 4 Este 0 -- -- 100
2020-11-09 05:00:00 7.7 0 Calma 3 Nordeste 0 -- -- 100
2020-11-09 04:00:00 7.7 0 Calma 4 Sur 0 -- -- 100
2020-11-09 03:00:00 8.4 0 Calma 2 Nordeste 0 -- -- 100
2020-11-09 02:00:00 8.5 0 Calma 6 Este 0 -- -- 100
2020-11-09 01:00:00 8.2 3 Este 6 Este 0 -- -- 100
2020-11-09 00:00:00 7.4 3 Sudeste 5 Sudeste 0 -- -- 100
2020-11-08 23:00:00 9.1 4 Este 5 Este 0.2 -- -- 100
2020-11-08 22:00:00 9.7 0 Calma 3 Sudoeste 0 -- -- 100
2020-11-08 21:00:00 10.1 4 Sudoeste 12 Oeste 0.8 -- -- 100
2020-11-08 20:00:00 10.5 4 Sudoeste 6 Sudoeste 0.2 -- -- 100
2020-11-08 19:00:00 10.6 0 Calma 13 Oeste 1 -- -- 99
2020-11-08 18:00:00 11.6 10 Oeste 32 Sudoeste 2.2 -- -- 96
2020-11-08 17:00:00 15.2 6 Sur 17 Sudoeste 0 -- -- 67
2020-11-08 16:00:00 15.5 11 Sur 23 Sur 0 -- -- 64
2020-11-08 15:00:00 16 13 Sudoeste 26 Sudoeste 0 -- -- 60
2020-11-08 14:00:00 17.1 13 Sudoeste 33 Sudoeste 0 -- -- 57
2020-11-08 13:00:00 16.2 17 Sudoeste 30 Sudoeste 0 -- -- 62
2020-11-08 12:00:00 14.3 16 Sudoeste 31 Sudoeste 0 -- -- 69
2020-11-08 11:00:00 11.7 3 Nordeste 9 Nordeste 0 -- -- 85
2020-11-08 10:00:00 9 6 Nordeste 12 Nordeste 0 -- -- 97
2020-11-08 09:00:00 5.6 0 Calma 12 Este 0 -- -- 100
2020-11-08 08:00:00 5 5 Nordeste 12 Nordeste 0 -- -- 100
2020-11-08 07:00:00 5.1 3 Este 12 Nordeste 0 -- -- 100
2020-11-08 06:00:00 6.4 9 Nordeste 16 Nordeste 0 -- -- 100
2020-11-08 05:00:00 6.3 4 Nordeste 9 Nordeste 0 -- -- 100
2020-11-08 04:00:00 6 5 Nordeste 8 Nordeste 0 -- -- 100
2020-11-08 03:00:00 4 3 Este 6 Este 0 -- -- 100
2020-11-08 02:00:00 4.6 0 Calma 6 Nordeste 0 -- -- 100
2020-11-08 01:00:00 5 2 Norte 8 Nordeste 0 -- -- 100
2020-11-08 00:00:00 6.1 4 Este 6 Este 0 -- -- 99
2020-11-07 23:00:00 6.3 4 Nordeste 9 Sur 0 -- -- 98
2020-11-07 22:00:00 7.7 5 Sudoeste 6 Sudoeste 0 -- -- 97
2020-11-07 21:00:00 7.7 4 Norte 9 Oeste 0 -- -- 91
2020-11-07 20:00:00 10.9 6 Oeste 26 Sudoeste 0 -- -- 83
2020-11-07 19:00:00 11.5 9 Sudoeste 20 Sudoeste 0 -- -- 85
2020-11-07 18:00:00 13.5 11 Sudoeste 28 Sudoeste 0 -- -- 78
2020-11-07 17:00:00 14.8 14 Sudoeste 26 Sudoeste 0 -- -- 73
2020-11-07 16:00:00 15.1 12 Sudoeste 28 Sudoeste 0 -- -- 74
2020-11-07 15:00:00 15 11 Oeste 17 Oeste 0 -- -- 73
2020-11-07 14:00:00 13 9 Oeste 28 Sudoeste 0 -- -- 87
2020-11-07 13:00:00 13.2 22 Sudoeste 32 Sudoeste 0 -- -- 81
2020-11-07 12:00:00 12.9 12 Oeste 22 Sudoeste 0 -- -- 85
2020-11-07 11:00:00 12.5 10 Oeste 19 Oeste 0 -- -- 86
2020-11-07 10:00:00 11.2 7 Oeste 12 Oeste 0 -- -- 94
2020-11-07 09:00:00 8.8 0 Calma 5 Sur 0 -- -- 98
2020-11-07 08:00:00 9.1 2 Este 6 Este 0 -- -- 96
2020-11-07 07:00:00 10.5 2 Nordeste 17 Sur 0 -- -- 93
2020-11-07 06:00:00 11.6 8 Sudeste 17 Sudeste 0 -- -- 84
2020-11-07 05:00:00 11.3 7 Sudeste 18 Sudeste 0 -- -- 86
2020-11-07 04:00:00 11.4 5 Sudeste 14 Sudeste 0 -- -- 85
2020-11-07 03:00:00 13.1 13 Sudeste 26 Sur 0.2 -- -- 78
2020-11-07 02:00:00 12.4 8 Sudeste 23 Sudeste 0 -- -- 92
2020-11-07 01:00:00 13 5 Sudeste 20 Sur 0 -- -- 87
2020-11-07 00:00:00 11.4 6 Sudeste 11 Sur 0 -- -- 99
2020-11-06 23:00:00 11.2 3 Nordeste 19 Este 0 -- -- 96
2020-11-06 22:00:00 11.6 8 Sudeste 27 Sur 0.2 -- -- 91
2020-11-06 21:00:00 12.8 18 Sur 67 Sudoeste 2.8 -- -- 88
2020-11-06 20:00:00 16.5 10 Sudeste 31 Sudeste 0 -- -- 68
2020-11-06 19:00:00 17.2 14 Sudeste 33 Este 0 -- -- 65
2020-11-06 18:00:00 16.9 11 Este 32 Este 0 -- -- 67
2020-11-06 17:00:00 17.3 9 Sudeste 19 Este 0 -- -- 68
2020-11-06 16:00:00 17.8 5 Sudeste 15 Sudeste 0 -- -- 67
2020-11-06 15:00:00 16.7 5 Este 28 Este 0 -- -- 76
2020-11-06 14:00:00 15.5 11 Este 29 Este 0 -- -- 76
2020-11-06 13:00:00 14.2 13 Este 30 Este 0 -- -- 80
2020-11-06 12:00:00 13 13 Este 34 Este 0 -- -- 84
2020-11-06 11:00:00 12.6 12 Este 27 Este 0 -- -- 86
2020-11-06 10:00:00 11.5 10 Nordeste 20 Este 0 -- -- 89
2020-11-06 09:00:00 10 3 Nordeste 10 Nordeste 0 -- -- 97
2020-11-06 08:00:00 9.6 6 Nordeste 12 Nordeste 0.2 -- -- 96
2020-11-06 07:00:00 8.8 5 Nordeste 13 Nordeste 0 -- -- 95
2020-11-06 06:00:00 9.5 6 Nordeste 11 Este 0 -- -- 90
2020-11-06 05:00:00 11.5 6 Este 24 Sudeste 0 -- -- 83
2020-11-06 04:00:00 11.9 10 Este 30 Este 0 -- -- 82
2020-11-06 03:00:00 11.2 10 Este 22 Este 0 -- -- 86
2020-11-06 02:00:00 9.9 10 Este 18 Este 0 -- -- 90
2020-11-06 01:00:00 9 0 Calma 8 Este 0 -- -- 94
2020-11-06 00:00:00 9.2 3 Este 14 Este 0 -- -- 94
2020-11-05 23:00:00 11 10 Este 25 Nordeste 0 -- -- 88
2020-11-05 22:00:00 10.9 13 Este 27 Este 0 -- -- 90
2020-11-05 21:00:00 11.1 10 Este 25 Este 0 -- -- 87
2020-11-05 20:00:00 11.4 11 Este 30 Este 0 -- -- 84
2020-11-05 19:00:00 11.4 12 Este 30 Este 0 -- -- 86
2020-11-05 18:00:00 11.9 11 Este 34 Este 0 -- -- 82
2020-11-05 17:00:00 12.3 16 Este 30 Este 0 -- -- 79
2020-11-05 16:00:00 11.9 15 Este 32 Este 0 -- -- 80
2020-11-05 15:00:00 12.1 13 Este 35 Nordeste 0 -- -- 78
2020-11-05 14:00:00 12.2 14 Este 36 Nordeste 0 -- -- 77
2020-11-05 13:00:00 12 14 Este 40 Este 0 -- -- 78
2020-11-05 12:00:00 11.2 16 Este 45 Este 0 -- -- 80
2020-11-05 11:00:00 10.8 19 Este 41 Este 0.2 -- -- 79
2020-11-05 10:00:00 10 16 Este 40 Este 0 -- -- 81
2020-11-05 09:00:00 9.5 17 Este 42 Este 0 -- -- 83
2020-11-05 08:00:00 8.8 17 Este 49 Nordeste 0 -- -- 85
2020-11-05 07:00:00 8.7 21 Este 46 Este 0 -- -- 85
2020-11-05 06:00:00 8.1 18 Este 41 Este 0 -- -- 87
2020-11-05 05:00:00 8.2 17 Este 38 Este 0 -- -- 86
2020-11-05 04:00:00 7.8 17 Este 39 Este 0 -- -- 88
2020-11-05 03:00:00 7.8 12 Este 38 Este 0 -- -- 87
2020-11-05 02:00:00 7.8 18 Este 41 Este 0 -- -- 86
2020-11-05 01:00:00 7.7 18 Este 34 Este 0 -- -- 85
2020-11-05 00:00:00 8 16 Este 39 Este 0 -- -- 81